»·PEaware :: XSR250 KDRO-KDEN

XSR250 :: KDRO-KDEN

FLIGHT INFORMATION

Flight Status: Arrived
Operator: Unknown
More flights by this operator :: More flights under this callsign
Pilot: Anonymous 13363 (13363)
Aircraft: BEECH AIRCRAFT SUPER KING AIR COMMUTER
(BE20)
More flights by this aircraft type
Origin: KDRO Durango-La Plata Co
United States
Destination: KDEN Denver Intl
United States
More flights between these airports :: More routes between these airports
Route: +DRO HBU LARKS8
File this flight plan on PilotEdge
Remarks:
Altitude:
(Current/Filed)
27,000ft
Speed:
(Current/Filed)
330kts
Departed: 09-Feb-18 05:29 PM
Arrived: 09-Feb-18 06:22 PM
Distance/Time
Traveled:
217nm/0:53
Distance/Time
To Go:
Arrived

Flight Plot

Page will automatically refresh every two minutes.

Flight plan parsing failed; only flown route is shown


Map Options




Map Legend


Flown Route
Filed Route
Departure Airport
Arrival Airport
Navaid (VOR, NDB)
Fix

Horizontal Profiles

Position Reports

Time Latitude Longitude Heading Altitude Ground
Speed
09-Feb-18 17:29 37.152933 -107.754979 36 6585ft 0kts
09-Feb-18 17:30 37.152933 -107.754979 36 6585ft 0kts
09-Feb-18 17:31 37.152933 -107.754979 36 6585ft 0kts
09-Feb-18 17:32 37.152933 -107.754979 36 6585ft 0kts
09-Feb-18 17:33 37.150557 -107.756571 219 6585ft 21kts
09-Feb-18 17:34 37.146764 -107.758325 219 6585ft 7kts
09-Feb-18 17:35 37.142056 -107.762794 36 6585ft 7kts
09-Feb-18 17:36 37.155644 -107.749694 34 6860ft 158kts
09-Feb-18 17:37 37.197132 -107.710351 33 9238ft 192kts
09-Feb-18 17:38 37.245290 -107.682070 18 11647ft 197kts
09-Feb-18 17:39 37.296210 -107.654919 18 14042ft 203kts
09-Feb-18 17:40 37.349040 -107.627213 18 16153ft 210kts
09-Feb-18 17:41 37.403534 -107.598318 15 17947ft 219kts
09-Feb-18 17:42 37.459043 -107.568849 9 19845ft 207kts
09-Feb-18 17:43 37.511538 -107.541907 8 21287ft 208kts
09-Feb-18 17:44 37.565502 -107.513685 6 22454ft 215kts
09-Feb-18 17:45 37.620666 -107.484808 8 23522ft 217kts
09-Feb-18 17:46 37.675700 -107.455378 5 24919ft 199kts
09-Feb-18 17:47 37.724001 -107.429887 2 26701ft 183kts
09-Feb-18 17:48 37.776023 -107.403307 6 27091ft 230kts
09-Feb-18 17:49 37.838165 -107.370199 7 27088ft 255kts
09-Feb-18 17:50 37.903742 -107.335178 8 27069ft 262kts
09-Feb-18 17:51 37.971195 -107.299241 8 27068ft 263kts
09-Feb-18 17:52 38.038589 -107.263328 8 27068ft 264kts
09-Feb-18 17:53 38.101748 -107.229614 8 27069ft 264kts
09-Feb-18 17:54 38.165193 -107.195403 6 27097ft 266kts
09-Feb-18 17:55 38.233908 -107.158937 8 26995ft 268kts
09-Feb-18 17:56 38.302183 -107.122206 7 26993ft 267kts
09-Feb-18 17:57 38.370361 -107.085526 7 26993ft 266kts
09-Feb-18 17:58 38.438505 -107.048752 9 26993ft 268kts
09-Feb-18 17:59 38.481141 -106.956333 57 26995ft 322kts
09-Feb-18 18:00 38.516017 -106.849653 57 26997ft 328kts
09-Feb-18 18:01 38.551221 -106.742180 57 26998ft 329kts
09-Feb-18 18:02 38.586544 -106.634014 57 26999ft 330kts
09-Feb-18 18:03 38.621738 -106.525902 57 27000ft 330kts
09-Feb-18 18:04 38.656934 -106.417253 57 27002ft 331kts
09-Feb-18 18:05 38.690351 -106.313819 58 26988ft 331kts
09-Feb-18 18:06 38.725044 -106.205921 57 26989ft 329kts
09-Feb-18 18:07 38.759421 -106.098671 58 26964ft 330kts
09-Feb-18 18:08 38.806464 -106.004943 35 26966ft 308kts
09-Feb-18 18:09 38.861861 -105.921062 36 26966ft 309kts
09-Feb-18 18:10 38.918582 -105.834476 38 26076ft 334kts
09-Feb-18 18:11 38.978968 -105.741323 39 24698ft 340kts
09-Feb-18 18:12 39.038036 -105.649996 39 23318ft 331kts
09-Feb-18 18:13 39.095734 -105.561804 45 21966ft 327kts
09-Feb-18 18:14 39.150144 -105.476736 49 20641ft 311kts
09-Feb-18 18:15 39.203064 -105.393822 49 19268ft 302kts
09-Feb-18 18:16 39.254629 -105.313297 49 17914ft 300kts
09-Feb-18 18:17 39.307380 -105.230803 49 16517ft 299kts
09-Feb-18 18:18 39.359885 -105.148348 49 15141ft 302kts
09-Feb-18 18:19 39.406672 -105.074796 48 14462ft 292kts
09-Feb-18 18:20 39.458383 -104.992501 50 12868ft 295kts
09-Feb-18 18:21 39.507871 -104.913195 50 11439ft 276kts
09-Feb-18 18:22 39.555667 -104.837367 50 10240ft 271kts
09-Feb-18 18:23 39.602688 -104.762742 50 9119ft 268kts
09-Feb-18 18:24 39.646773 -104.692519 51 8580ft 238kts
09-Feb-18 18:25 39.703270 -104.660442 354 8139ft 219kts
09-Feb-18 18:26 39.758223 -104.661164 4 6750ft 177kts
09-Feb-18 18:27 39.800241 -104.661166 6 6016ft 120kts
09-Feb-18 18:28 39.828261 -104.660587 3 5391ft 113kts
09-Feb-18 18:29 39.836549 -104.661601 209 5320ft 9kts
09-Feb-18 18:30 39.838820 -104.662531 0 5320ft 19kts
09-Feb-18 18:31 39.839588 -104.665056 201 5320ft 6kts
09-Feb-18 18:32 39.839239 -104.665086 179 5320ft 0kts
09-Feb-18 18:33 39.839239 -104.665088 177 5320ft 0kts
09-Feb-18 18:34 39.839239 -104.665090 175 5320ft 0kts
09-Feb-18 18:35 39.839239 -104.665092 173 5320ft 0kts

Navigation Log

Ident Type
Flight plan parsing failed, navigation log unavailable